createdAt,value
2022-11-15T00:01:11.199Z,3.35
2022-11-15T00:03:40.574Z,3.40
2022-11-15T00:06:08.666Z,3.13
2022-11-15T00:08:36.682Z,3.00
2022-11-15T00:11:04.939Z,3.35
2022-11-15T00:13:33.193Z,2.88
2022-11-15T00:16:01.878Z,3.03
2022-11-15T00:18:30.041Z,3.08
2022-11-15T00:21:04.510Z,3.00
2022-11-15T00:23:32.783Z,2.92
2022-11-15T00:26:01.016Z,2.85
2022-11-15T00:28:28.970Z,2.83
2022-11-15T00:31:01.489Z,3.05
2022-11-15T00:33:29.753Z,2.85
2022-11-15T00:36:03.579Z,2.90
2022-11-15T00:38:33.675Z,2.95
2022-11-15T00:41:06.242Z,3.10
2022-11-15T00:43:36.953Z,2.60
2022-11-15T00:46:07.222Z,3.20
2022-11-15T00:48:35.115Z,2.75
2022-11-15T00:51:05.563Z,2.55
2022-11-15T00:53:33.818Z,3.10
2022-11-15T00:56:02.059Z,3.15
2022-11-15T00:58:30.019Z,3.10
2022-11-15T01:00:58.031Z,2.85
2022-11-15T01:03:25.940Z,2.60
2022-11-15T01:05:53.933Z,2.85
2022-11-15T01:08:23.267Z,2.78
2022-11-15T01:10:51.231Z,2.88
2022-11-15T01:13:19.200Z,2.80
2022-11-15T01:15:47.129Z,2.78
2022-11-15T01:18:17.484Z,2.63
2022-11-15T01:20:45.410Z,2.65
2022-11-15T01:23:15.834Z,2.65
2022-11-15T01:25:50.095Z,2.45
2022-11-15T01:28:22.727Z,2.50
2022-11-15T01:30:51.069Z,2.97
2022-11-15T01:33:20.452Z,2.83
2022-11-15T01:35:49.501Z,2.83
2022-11-15T01:38:18.804Z,2.63
2022-11-15T01:40:49.302Z,2.70
2022-11-15T01:43:25.495Z,2.30
2022-11-15T01:45:55.010Z,2.50
2022-11-15T01:48:23.227Z,2.75
2022-11-15T01:50:53.178Z,2.40
2022-11-15T01:53:22.389Z,2.35
2022-11-15T01:55:53.004Z,2.67
2022-11-15T01:58:21.103Z,2.45
2022-11-15T02:00:50.696Z,2.15
2022-11-15T02:03:18.808Z,2.50
2022-11-15T02:05:46.755Z,2.28
2022-11-15T02:08:21.575Z,2.53
2022-11-15T02:10:56.490Z,2.40
2022-11-15T02:13:25.725Z,2.40
2022-11-15T02:16:04.327Z,2.58
2022-11-15T02:18:34.955Z,2.25
2022-11-15T02:21:26.087Z,2.30
2022-11-15T02:24:37.845Z,2.15
2022-11-15T02:27:40.473Z,2.30
2022-11-15T02:30:31.227Z,2.60
2022-11-15T02:33:01.283Z,2.38
2022-11-15T02:35:33.863Z,2.20
2022-11-15T02:38:04.298Z,2.00
2022-11-15T02:40:37.651Z,2.20
2022-11-15T02:43:27.374Z,2.40
2022-11-15T02:46:02.260Z,2.10
2022-11-15T02:48:31.600Z,2.45
2022-11-15T02:51:01.007Z,2.20
2022-11-15T02:53:30.586Z,2.30
2022-11-15T02:56:00.015Z,2.30
2022-11-15T02:58:51.944Z,2.05
2022-11-15T03:01:29.291Z,2.20
2022-11-15T03:04:10.365Z,1.95
2022-11-15T03:06:42.074Z,2.08
2022-11-15T03:09:13.311Z,2.05
2022-11-15T03:11:43.904Z,2.00
2022-11-15T03:14:18.942Z,2.20
2022-11-15T03:16:49.968Z,2.08
2022-11-15T03:19:21.662Z,2.05
2022-11-15T03:21:49.795Z,2.25
2022-11-15T03:24:21.970Z,1.80
2022-11-15T03:26:54.279Z,2.10
2022-11-15T03:29:25.190Z,2.38
2022-11-15T03:31:56.573Z,2.10
2022-11-15T03:34:31.655Z,1.95
2022-11-15T03:36:59.575Z,1.83
2022-11-15T03:39:28.050Z,2.00
2022-11-15T03:42:04.570Z,2.08
2022-11-15T03:44:38.899Z,1.98
2022-11-15T03:47:11.614Z,2.10
2022-11-15T03:49:42.007Z,1.90
2022-11-15T03:52:11.875Z,1.90
2022-11-15T03:54:47.130Z,1.98
2022-11-15T03:57:16.314Z,1.90
2022-11-15T03:59:45.549Z,1.77
2022-11-15T04:02:16.221Z,1.88
2022-11-15T04:04:44.314Z,1.77
2022-11-15T04:07:13.929Z,1.90
2022-11-15T04:09:57.482Z,1.73
2022-11-15T04:12:32.683Z,1.90
2022-11-15T04:15:11.475Z,1.77
2022-11-15T04:17:43.411Z,1.70
2022-11-15T04:20:32.443Z,1.80
2022-11-15T04:23:20.350Z,1.77
2022-11-15T04:25:51.244Z,1.90
2022-11-15T04:28:20.450Z,1.88
2022-11-15T04:30:49.683Z,1.55
2022-11-15T04:33:20.213Z,1.98
2022-11-15T04:36:08.348Z,1.88
2022-11-15T04:38:48.098Z,1.90
2022-11-15T04:41:16.083Z,1.75
2022-11-15T04:43:44.029Z,1.90
2022-11-15T04:46:12.020Z,1.58
2022-11-15T04:48:41.343Z,1.60
2022-11-15T04:51:09.283Z,1.70
2022-11-15T04:53:38.422Z,1.70
2022-11-15T04:56:08.304Z,1.60
2022-11-15T04:58:36.317Z,1.58
2022-11-15T05:01:09.242Z,1.60
2022-11-15T05:03:55.795Z,1.73
2022-11-15T05:06:29.268Z,1.70
2022-11-15T05:08:58.378Z,1.88
2022-11-15T05:11:26.418Z,1.70
2022-11-15T05:13:54.571Z,1.90
2022-11-15T05:16:22.494Z,1.80
2022-11-15T05:18:53.078Z,1.70
2022-11-15T05:21:22.318Z,1.90
2022-11-15T05:23:52.903Z,2.00
2022-11-15T05:26:21.894Z,1.70
2022-11-15T05:28:54.990Z,1.73
2022-11-15T05:31:23.297Z,2.00
2022-11-15T05:33:52.610Z,1.60
2022-11-15T05:36:24.157Z,1.77
2022-11-15T05:38:54.901Z,1.70
2022-11-15T05:41:26.532Z,1.90
2022-11-15T05:43:55.845Z,1.63
2022-11-15T05:46:25.094Z,1.70
2022-11-15T05:48:54.238Z,1.60
2022-11-15T05:51:23.697Z,1.60
2022-11-15T05:53:54.037Z,1.70
2022-11-15T05:56:23.170Z,1.80
2022-11-15T05:58:55.557Z,1.70
2022-11-15T06:01:29.805Z,1.65
2022-11-15T06:03:58.962Z,1.60
2022-11-15T06:06:29.913Z,1.60
2022-11-15T06:09:00.386Z,1.60
2022-11-15T06:11:29.869Z,1.88
2022-11-15T06:13:58.986Z,1.33
2022-11-15T06:16:27.997Z,1.50
2022-11-15T06:18:56.950Z,1.52
2022-11-15T06:21:29.582Z,1.80
2022-11-15T06:24:00.262Z,1.50
2022-11-15T06:26:29.859Z,1.40
2022-11-15T06:28:59.171Z,1.33
2022-11-15T06:31:27.134Z,1.30
2022-11-15T06:33:55.306Z,1.50
2022-11-15T06:36:24.538Z,1.65
2022-11-15T06:38:53.760Z,1.70
2022-11-15T06:41:24.395Z,1.42
2022-11-15T06:43:53.686Z,1.73
2022-11-15T06:46:22.739Z,1.48
2022-11-15T06:48:52.865Z,1.50
2022-11-15T06:51:22.367Z,1.65
2022-11-15T06:53:51.539Z,1.42
2022-11-15T06:56:20.867Z,1.40
2022-11-15T06:58:55.432Z,1.48
2022-11-15T07:01:24.586Z,1.50
2022-11-15T07:03:53.594Z,1.80
2022-11-15T07:06:23.100Z,1.45
2022-11-15T07:08:54.724Z,1.52
2022-11-15T07:11:23.690Z,1.40
2022-11-15T07:13:53.017Z,1.48
2022-11-15T07:16:22.275Z,1.42
2022-11-15T07:18:51.514Z,1.52
2022-11-15T07:21:26.245Z,1.70
2022-11-15T07:23:55.673Z,1.50
2022-11-15T07:26:23.653Z,1.58
2022-11-15T07:28:53.172Z,1.70
2022-11-15T07:31:21.195Z,1.60
2022-11-15T07:33:49.144Z,1.80
2022-11-15T07:36:17.080Z,1.70
2022-11-15T07:38:45.273Z,1.63
2022-11-15T07:41:13.265Z,1.50
2022-11-15T07:43:42.799Z,1.70
2022-11-15T07:46:12.167Z,1.70
2022-11-15T07:48:45.253Z,1.63
2022-11-15T07:51:14.896Z,1.40
2022-11-15T07:53:43.127Z,1.58
2022-11-15T07:56:11.198Z,1.73
2022-11-15T07:58:39.118Z,1.70
2022-11-15T08:01:07.495Z,1.65
2022-11-15T08:03:37.032Z,1.80
2022-11-15T08:06:05.294Z,1.58
2022-11-15T08:08:33.264Z,1.60
2022-11-15T08:11:01.335Z,1.70
2022-11-15T08:13:30.138Z,1.55
2022-11-15T08:16:00.504Z,1.77
2022-11-15T08:18:28.860Z,1.60
2022-11-15T08:21:01.044Z,1.70
2022-11-15T08:23:30.132Z,1.50
2022-11-15T08:26:02.671Z,1.77
2022-11-15T08:28:30.986Z,1.55
2022-11-15T08:30:58.884Z,1.85
2022-11-15T08:33:26.823Z,1.67
2022-11-15T08:35:54.844Z,1.70
2022-11-15T08:38:24.247Z,1.63
2022-11-15T08:40:52.547Z,1.70
2022-11-15T08:43:20.658Z,1.60
2022-11-15T08:45:48.664Z,1.50
2022-11-15T08:48:16.738Z,1.67
2022-11-15T08:50:45.506Z,1.92
2022-11-15T08:53:15.138Z,1.80
2022-11-15T08:55:44.575Z,2.10
2022-11-15T08:58:12.704Z,1.70
2022-11-15T09:00:40.622Z,2.10
2022-11-15T09:03:10.182Z,2.30
2022-11-15T09:05:38.360Z,1.80
2022-11-15T09:08:25.517Z,1.73
2022-11-15T09:10:56.284Z,1.80
2022-11-15T09:13:24.214Z,2.05
2022-11-15T09:15:52.208Z,1.75
2022-11-15T09:18:22.397Z,1.67
2022-11-15T09:20:50.451Z,1.95
2022-11-15T09:23:18.605Z,1.85
2022-11-15T09:25:46.576Z,2.00
2022-11-15T09:28:16.142Z,2.05
2022-11-15T09:30:44.205Z,1.80
2022-11-15T09:33:12.659Z,1.73
2022-11-15T09:35:41.884Z,2.20
2022-11-15T09:38:09.775Z,1.90
2022-11-15T09:40:38.675Z,2.13
2022-11-15T09:43:18.781Z,1.88
2022-11-15T09:45:55.222Z,2.25
2022-11-15T09:49:00.391Z,2.20
2022-11-15T09:51:31.324Z,1.92
2022-11-15T09:54:45.472Z,1.88
2022-11-15T09:56:54.228Z,1.75
2022-11-15T09:59:32.590Z,1.90
2022-11-15T10:02:06.251Z,1.92
2022-11-15T10:04:34.136Z,2.20
2022-11-15T10:07:05.034Z,1.90
2022-11-15T10:09:36.240Z,1.80
2022-11-15T10:12:04.383Z,2.20
2022-11-15T10:14:33.700Z,2.00
2022-11-15T10:17:11.797Z,2.17
2022-11-15T10:19:44.495Z,2.17
2022-11-15T10:22:20.427Z,2.10
2022-11-15T10:24:49.080Z,1.92
2022-11-15T10:27:18.216Z,2.30
2022-11-15T10:29:48.358Z,2.35
2022-11-15T10:32:19.540Z,2.30
2022-11-15T10:34:47.601Z,1.90
2022-11-15T10:37:15.743Z,1.90
2022-11-15T10:39:44.424Z,1.95
2022-11-15T10:42:19.843Z,2.50
2022-11-15T10:44:49.142Z,2.20
2022-11-15T10:47:28.472Z,2.15
2022-11-15T10:50:01.368Z,2.20
2022-11-15T10:52:29.413Z,2.15
2022-11-15T10:54:59.846Z,2.28
2022-11-15T10:57:29.773Z,2.03
2022-11-15T11:00:00.846Z,1.98
2022-11-15T11:02:34.136Z,2.08
2022-11-15T11:05:02.457Z,2.08
2022-11-15T11:07:31.600Z,2.08
2022-11-15T11:10:01.613Z,2.20
2022-11-15T11:12:31.188Z,2.00
2022-11-15T11:15:01.372Z,1.95
2022-11-15T11:17:35.074Z,2.30
2022-11-15T11:20:05.743Z,2.15
2022-11-15T11:22:37.112Z,2.20
2022-11-15T11:25:10.772Z,2.20
2022-11-15T11:27:45.946Z,2.05
2022-11-15T11:30:17.571Z,2.30
2022-11-15T11:33:07.861Z,2.00
2022-11-15T11:35:38.888Z,2.30
2022-11-15T11:38:18.043Z,2.47
2022-11-15T11:41:00.016Z,2.20
2022-11-15T11:43:29.904Z,2.20
2022-11-15T11:46:33.151Z,2.28
2022-11-15T11:49:03.837Z,2.58
2022-11-15T11:51:35.144Z,2.40
2022-11-15T11:54:07.605Z,2.50
2022-11-15T11:56:37.128Z,2.25
2022-11-15T11:59:08.880Z,2.65
2022-11-15T12:01:39.588Z,2.50
2022-11-15T12:04:11.549Z,2.42
2022-11-15T12:06:44.578Z,2.80
2022-11-15T12:09:15.839Z,2.50
2022-11-15T12:11:50.005Z,2.40
2022-11-15T12:14:25.504Z,2.67
2022-11-15T12:16:54.789Z,2.75
2022-11-15T12:19:22.694Z,2.95
2022-11-15T12:21:52.569Z,2.67
2022-11-15T12:24:22.420Z,2.72
2022-11-15T12:26:53.138Z,2.47
2022-11-15T12:29:25.204Z,2.50
2022-11-15T12:31:56.693Z,2.90
2022-11-15T12:34:45.981Z,2.83
2022-11-15T12:37:49.436Z,2.50
2022-11-15T12:40:30.050Z,2.72
2022-11-15T12:43:06.484Z,2.80
2022-11-15T12:45:35.408Z,2.50
2022-11-15T12:48:40.409Z,2.70
2022-11-15T12:51:09.804Z,2.20
2022-11-15T12:53:37.725Z,2.80
2022-11-15T12:56:27.147Z,2.50
2022-11-15T12:58:57.236Z,2.70
2022-11-15T13:02:07.609Z,2.70
2022-11-15T13:04:35.535Z,2.63
2022-11-15T13:07:05.478Z,2.97
2022-11-15T13:09:52.463Z,2.63
2022-11-15T13:12:51.520Z,2.75
2022-11-15T13:15:46.101Z,3.05
2022-11-15T13:18:40.323Z,2.70
2022-11-15T13:21:38.714Z,2.70
2022-11-15T13:24:12.796Z,2.95
2022-11-15T13:26:41.259Z,3.00
2022-11-15T13:29:17.120Z,2.70
2022-11-15T13:31:46.299Z,2.90
2022-11-15T13:34:49.423Z,2.80
2022-11-15T13:37:12.144Z,2.75
2022-11-15T13:39:43.121Z,3.08
2022-11-15T13:42:16.859Z,2.67
2022-11-15T13:44:57.241Z,2.97
2022-11-15T13:47:27.892Z,3.17
2022-11-15T13:49:55.880Z,3.17
2022-11-15T13:52:23.807Z,2.97
2022-11-15T13:54:56.841Z,3.20
2022-11-15T13:57:26.298Z,2.78
2022-11-15T13:59:55.101Z,3.20
2022-11-15T14:02:24.529Z,3.20
2022-11-15T14:04:53.569Z,3.40
2022-11-15T14:07:22.730Z,3.20
2022-11-15T14:09:50.635Z,3.10
2022-11-15T14:12:34.089Z,3.17
2022-11-15T14:15:03.839Z,3.45
2022-11-15T14:17:39.485Z,3.97
2022-11-15T14:20:29.467Z,4.57
2022-11-15T14:22:58.185Z,5.35
2022-11-15T14:25:26.496Z,5.00
2022-11-15T14:28:15.581Z,4.85
2022-11-15T14:30:47.250Z,4.45
2022-11-15T14:33:26.006Z,4.20
2022-11-15T14:35:54.142Z,4.55
2022-11-15T14:38:24.565Z,4.05
2022-11-15T14:40:52.672Z,4.70
2022-11-15T14:43:22.148Z,5.20
2022-11-15T14:45:50.085Z,4.80
2022-11-15T14:48:18.227Z,5.20
2022-11-15T14:50:46.169Z,4.38
2022-11-15T14:53:15.967Z,4.75
2022-11-15T14:55:43.928Z,4.03
2022-11-15T14:58:12.075Z,4.40
2022-11-15T15:00:42.479Z,4.22
2022-11-15T15:03:10.934Z,3.85
2022-11-15T15:05:40.096Z,4.40
2022-11-15T15:08:08.691Z,4.30
2022-11-15T15:10:41.207Z,4.53
2022-11-15T15:13:15.590Z,4.43
2022-11-15T15:15:45.977Z,4.10
2022-11-15T15:18:15.625Z,4.10
2022-11-15T15:20:43.797Z,4.25
2022-11-15T15:23:17.347Z,4.25
2022-11-15T15:25:46.592Z,4.07
2022-11-15T15:28:15.255Z,4.00
2022-11-15T15:30:45.209Z,3.97
2022-11-15T15:33:15.632Z,4.18
2022-11-15T15:35:44.049Z,4.13
2022-11-15T15:38:14.823Z,4.13
2022-11-15T15:40:42.862Z,4.20
2022-11-15T15:43:11.635Z,4.45
2022-11-15T15:45:40.344Z,4.53
2022-11-15T15:48:12.955Z,4.18
2022-11-15T15:50:40.886Z,4.05
2022-11-15T15:53:09.786Z,3.97
2022-11-15T15:55:37.665Z,4.18
2022-11-15T15:58:06.532Z,4.55
2022-11-15T16:00:34.800Z,4.75
2022-11-15T16:03:03.455Z,4.50
2022-11-15T16:05:34.350Z,4.90
2022-11-15T16:08:06.080Z,4.78
2022-11-15T16:10:35.088Z,5.40
2022-11-15T16:13:03.822Z,4.70
2022-11-15T16:15:32.172Z,4.82
2022-11-15T16:18:00.716Z,4.65
2022-11-15T16:20:40.613Z,4.85
2022-11-15T16:23:09.966Z,4.90
2022-11-15T16:25:43.155Z,5.18
2022-11-15T16:28:21.471Z,5.03
2022-11-15T16:30:56.565Z,5.25
2022-11-15T16:33:25.986Z,5.18
2022-11-15T16:35:56.112Z,5.68
2022-11-15T16:38:24.004Z,5.57
2022-11-15T16:40:52.603Z,5.10
2022-11-15T16:43:20.454Z,5.28
2022-11-15T16:45:49.721Z,5.28
2022-11-15T16:48:23.218Z,5.32
2022-11-15T16:50:51.817Z,5.45
2022-11-15T16:53:21.267Z,5.13
2022-11-15T16:55:50.048Z,5.10
2022-11-15T16:58:18.087Z,5.50
2022-11-15T17:00:46.844Z,5.20
2022-11-15T17:03:14.763Z,6.05
2022-11-15T17:05:43.791Z,5.68
2022-11-15T17:08:11.706Z,5.95
2022-11-15T17:10:42.750Z,5.88
2022-11-15T17:13:11.881Z,5.85
2022-11-15T17:15:40.470Z,6.40
2022-11-15T17:18:08.307Z,6.10
2022-11-15T17:20:36.935Z,6.00
2022-11-15T17:23:04.827Z,6.05
2022-11-15T17:25:33.435Z,6.43
2022-11-15T17:28:02.654Z,6.88
2022-11-15T17:30:33.228Z,6.93
2022-11-15T17:33:01.596Z,6.78
2022-11-15T17:35:30.244Z,7.03
2022-11-15T17:37:58.170Z,7.18
2022-11-15T17:40:26.719Z,7.47
2022-11-15T17:42:55.490Z,7.05
2022-11-15T17:45:25.486Z,6.95
2022-11-15T17:47:53.742Z,7.30
2022-11-15T17:50:22.394Z,7.10
2022-11-15T17:52:50.294Z,7.40
2022-11-15T17:55:18.897Z,7.32
2022-11-15T17:57:46.808Z,7.40
2022-11-15T18:00:15.762Z,7.47
2022-11-15T18:02:45.838Z,7.85
2022-11-15T18:05:13.840Z,7.20
2022-11-15T18:07:42.453Z,7.10
2022-11-15T18:10:10.470Z,7.03
2022-11-15T18:12:39.065Z,7.60
2022-11-15T18:15:07.832Z,8.15
2022-11-15T18:17:37.826Z,7.97
2022-11-15T18:20:08.294Z,7.18
2022-11-15T18:22:36.922Z,7.13
2022-11-15T18:25:05.086Z,7.00
2022-11-15T18:27:33.971Z,7.40
2022-11-15T18:30:02.653Z,7.45
2022-11-15T18:32:31.334Z,7.10
2022-11-15T18:34:59.214Z,6.70
2022-11-15T18:37:30.865Z,6.88
2022-11-15T18:39:58.802Z,6.63
2022-11-15T18:42:27.865Z,6.70
2022-11-15T18:44:55.942Z,6.53
2022-11-15T18:47:24.635Z,7.30
2022-11-15T18:49:52.499Z,6.78
2022-11-15T18:52:21.600Z,6.72
2022-11-15T18:54:50.878Z,6.65
2022-11-15T18:57:19.878Z,7.30
2022-11-15T18:59:47.811Z,6.80
2022-11-15T19:02:16.461Z,7.45
2022-11-15T19:04:44.372Z,7.50
2022-11-15T19:07:13.013Z,7.57
2022-11-15T19:09:40.988Z,7.40
2022-11-15T19:12:11.084Z,7.35
2022-11-15T19:14:39.022Z,6.85
2022-11-15T19:17:07.665Z,7.28
2022-11-15T19:19:35.647Z,7.35
2022-11-15T19:22:05.181Z,7.28
2022-11-15T19:24:34.073Z,7.70
2022-11-15T19:27:02.777Z,7.13
2022-11-15T19:29:35.895Z,7.88
2022-11-15T19:32:06.958Z,7.53
2022-11-15T19:34:34.916Z,7.65
2022-11-15T19:37:04.285Z,7.78
2022-11-15T19:40:30.704Z,7.72
2022-11-15T19:43:01.022Z,7.70
2022-11-15T19:45:30.323Z,7.80
2022-11-15T19:48:00.921Z,8.55
2022-11-15T19:50:28.911Z,8.18
2022-11-15T19:52:57.564Z,7.75
2022-11-15T19:55:25.495Z,8.38
2022-11-15T19:57:54.268Z,9.27
2022-11-15T20:00:22.301Z,8.85
2022-11-15T20:02:51.618Z,8.90
2022-11-15T20:05:20.928Z,8.50
2022-11-15T20:07:49.273Z,8.68
2022-11-15T20:10:20.753Z,9.52
2022-11-15T20:12:48.890Z,9.73
2022-11-15T20:15:17.687Z,10.27
2022-11-15T20:17:45.569Z,10.25
2022-11-15T20:20:15.871Z,9.40
2022-11-15T20:22:43.801Z,10.85
2022-11-15T20:25:12.596Z,11.25
2022-11-15T20:27:40.485Z,10.57
2022-11-15T20:30:11.171Z,11.43
2022-11-15T20:32:40.992Z,12.25
2022-11-15T20:35:10.995Z,11.35
2022-11-15T20:37:40.383Z,12.07
2022-11-15T20:40:43.007Z,11.55
2022-11-15T20:43:11.818Z,12.05
2022-11-15T20:45:40.573Z,11.38
2022-11-15T20:48:08.451Z,12.00
2022-11-15T20:50:44.089Z,11.25
2022-11-15T20:53:14.697Z,11.77
2022-11-15T20:55:44.947Z,11.65
2022-11-15T20:58:12.893Z,12.52
2022-11-15T21:00:42.812Z,12.30
2022-11-15T21:03:12.436Z,11.43
2022-11-15T21:05:41.954Z,11.85
2022-11-15T21:08:10.242Z,11.88
2022-11-15T21:10:59.333Z,12.13
2022-11-15T21:13:27.344Z,11.30
2022-11-15T21:15:58.074Z,12.15
2022-11-15T21:18:26.094Z,12.35
2022-11-15T21:20:55.048Z,11.82
2022-11-15T21:23:23.030Z,12.00
2022-11-15T21:25:53.372Z,12.55
2022-11-15T21:28:21.286Z,12.95
2022-11-15T21:30:57.529Z,12.50
2022-11-15T21:33:27.417Z,12.18
2022-11-15T21:35:56.396Z,12.13
2022-11-15T21:38:24.658Z,11.80
2022-11-15T21:40:54.833Z,11.98
2022-11-15T21:43:22.739Z,11.07
2022-11-15T21:45:57.597Z,10.93
2022-11-15T21:48:25.536Z,11.90
2022-11-15T21:50:59.895Z,12.32
2022-11-15T21:53:28.400Z,11.23
2022-11-15T21:55:58.768Z,11.57
2022-11-15T21:58:26.782Z,11.95
2022-11-15T22:01:13.150Z,11.10
2022-11-15T22:03:50.792Z,11.02
2022-11-15T22:06:21.113Z,11.07
2022-11-15T22:08:49.102Z,11.23
2022-11-15T22:11:19.142Z,11.00
2022-11-15T22:13:47.155Z,12.00
2022-11-15T22:16:16.028Z,10.65
2022-11-15T22:18:44.297Z,10.77
2022-11-15T22:21:16.042Z,9.93
2022-11-15T22:23:44.330Z,10.98
2022-11-15T22:26:15.855Z,10.82
2022-11-15T22:28:46.809Z,9.63
2022-11-15T22:31:18.050Z,10.30
2022-11-15T22:33:46.107Z,10.55
2022-11-15T22:36:15.085Z,10.35
2022-11-15T22:38:43.114Z,9.98
2022-11-15T22:41:12.036Z,10.13
2022-11-15T22:43:40.134Z,10.82
2022-11-15T22:46:10.903Z,10.70
2022-11-15T22:48:39.484Z,10.02
2022-11-15T22:51:08.583Z,11.13
2022-11-15T22:53:36.633Z,11.00
2022-11-15T22:56:06.238Z,10.32
2022-11-15T22:58:34.753Z,10.00
2022-11-15T23:01:05.073Z,10.07
2022-11-15T23:03:34.818Z,10.43
2022-11-15T23:06:04.611Z,11.02
2022-11-15T23:08:33.173Z,10.40
2022-11-15T23:11:20.241Z,10.43
2022-11-15T23:13:48.273Z,10.60
2022-11-15T23:16:26.196Z,10.90
2022-11-15T23:18:57.050Z,10.65
2022-11-15T23:21:44.813Z,10.75
2022-11-15T23:24:13.469Z,11.25
2022-11-15T23:26:41.721Z,11.00
2022-11-15T23:29:10.639Z,10.80
2022-11-15T23:32:01.471Z,10.73
2022-11-15T23:34:32.219Z,10.98
2022-11-15T23:37:00.693Z,10.80
2022-11-15T23:39:28.710Z,10.88
2022-11-15T23:41:56.755Z,11.05
2022-11-15T23:44:24.888Z,11.43
2022-11-15T23:46:52.939Z,11.38
2022-11-15T23:49:21.023Z,11.00
2022-11-15T23:51:50.469Z,11.02
2022-11-15T23:54:18.495Z,11.25
2022-11-15T23:56:46.528Z,11.48
2022-11-15T23:59:14.543Z,10.75
